sensor_id;sensor_type;location;lat;lon;timestamp;P1;durP1;ratioP1;P2;durP2;ratioP2
69569;SDS011;56781;42.292;23.146;2022-08-19T00:01:41;13.00;;;7.15;;
69569;SDS011;56781;42.292;23.146;2022-08-19T00:04:19;12.60;;;7.18;;
69569;SDS011;56781;42.292;23.146;2022-08-19T00:06:48;10.57;;;7.03;;
69569;SDS011;56781;42.292;23.146;2022-08-19T00:09:15;10.40;;;7.10;;
69569;SDS011;56781;42.292;23.146;2022-08-19T00:11:46;11.85;;;6.80;;
69569;SDS011;56781;42.292;23.146;2022-08-19T00:14:13;11.90;;;6.97;;
69569;SDS011;56781;42.292;23.146;2022-08-19T00:16:43;11.15;;;6.72;;
69569;SDS011;56781;42.292;23.146;2022-08-19T00:19:12;10.18;;;6.68;;
69569;SDS011;56781;42.292;23.146;2022-08-19T00:21:40;10.18;;;6.60;;
69569;SDS011;56781;42.292;23.146;2022-08-19T00:24:08;10.10;;;6.50;;
69569;SDS011;56781;42.292;23.146;2022-08-19T00:26:37;9.63;;;6.55;;
69569;SDS011;56781;42.292;23.146;2022-08-19T00:29:05;12.25;;;7.28;;
69569;SDS011;56781;42.292;23.146;2022-08-19T00:31:34;10.23;;;6.65;;
69569;SDS011;56781;42.292;23.146;2022-08-19T00:34:01;11.38;;;7.47;;
69569;SDS011;56781;42.292;23.146;2022-08-19T00:36:29;12.32;;;7.30;;
69569;SDS011;56781;42.292;23.146;2022-08-19T00:38:58;10.15;;;6.80;;
69569;SDS011;56781;42.292;23.146;2022-08-19T00:41:25;15.38;;;7.38;;
69569;SDS011;56781;42.292;23.146;2022-08-19T00:43:57;11.25;;;7.07;;
69569;SDS011;56781;42.292;23.146;2022-08-19T00:46:34;11.77;;;6.90;;
69569;SDS011;56781;42.292;23.146;2022-08-19T00:49:06;10.77;;;6.57;;
69569;SDS011;56781;42.292;23.146;2022-08-19T00:51:41;11.50;;;6.45;;
69569;SDS011;56781;42.292;23.146;2022-08-19T00:54:10;10.32;;;6.85;;
69569;SDS011;56781;42.292;23.146;2022-08-19T00:56:38;9.55;;;6.45;;
69569;SDS011;56781;42.292;23.146;2022-08-19T00:59:07;10.75;;;6.75;;
69569;SDS011;56781;42.292;23.146;2022-08-19T01:01:39;9.07;;;6.18;;
69569;SDS011;56781;42.292;23.146;2022-08-19T01:04:09;8.93;;;5.95;;
69569;SDS011;56781;42.292;23.146;2022-08-19T01:06:36;9.52;;;6.18;;
69569;SDS011;56781;42.292;23.146;2022-08-19T01:09:04;10.50;;;6.57;;
69569;SDS011;56781;42.292;23.146;2022-08-19T01:11:33;10.57;;;6.37;;
69569;SDS011;56781;42.292;23.146;2022-08-19T01:14:03;8.80;;;5.90;;
69569;SDS011;56781;42.292;23.146;2022-08-19T01:16:30;8.88;;;6.30;;
69569;SDS011;56781;42.292;23.146;2022-08-19T01:19:00;10.65;;;6.72;;
69569;SDS011;56781;42.292;23.146;2022-08-19T01:21:41;9.50;;;6.25;;
69569;SDS011;56781;42.292;23.146;2022-08-19T01:24:14;11.70;;;6.78;;
69569;SDS011;56781;42.292;23.146;2022-08-19T01:26:42;10.38;;;6.72;;
69569;SDS011;56781;42.292;23.146;2022-08-19T01:29:11;10.77;;;6.80;;
69569;SDS011;56781;42.292;23.146;2022-08-19T01:31:40;9.55;;;6.45;;
69569;SDS011;56781;42.292;23.146;2022-08-19T01:34:07;10.15;;;6.28;;
69569;SDS011;56781;42.292;23.146;2022-08-19T01:36:36;11.68;;;6.15;;
69569;SDS011;56781;42.292;23.146;2022-08-19T01:39:08;11.07;;;6.00;;
69569;SDS011;56781;42.292;23.146;2022-08-19T01:41:37;9.63;;;6.65;;
69569;SDS011;56781;42.292;23.146;2022-08-19T01:44:05;13.27;;;6.60;;
69569;SDS011;56781;42.292;23.146;2022-08-19T01:46:44;10.10;;;6.07;;
69569;SDS011;56781;42.292;23.146;2022-08-19T01:49:13;10.68;;;6.78;;
69569;SDS011;56781;42.292;23.146;2022-08-19T01:51:41;10.43;;;6.63;;
69569;SDS011;56781;42.292;23.146;2022-08-19T01:54:09;11.57;;;7.05;;
69569;SDS011;56781;42.292;23.146;2022-08-19T01:56:38;10.60;;;6.63;;
69569;SDS011;56781;42.292;23.146;2022-08-19T01:59:06;9.73;;;6.68;;
69569;SDS011;56781;42.292;23.146;2022-08-19T02:01:39;9.57;;;6.05;;
69569;SDS011;56781;42.292;23.146;2022-08-19T02:04:06;9.52;;;5.68;;
69569;SDS011;56781;42.292;23.146;2022-08-19T02:06:34;11.75;;;6.43;;
69569;SDS011;56781;42.292;23.146;2022-08-19T02:09:01;8.82;;;5.75;;
69569;SDS011;56781;42.292;23.146;2022-08-19T02:11:32;11.02;;;6.20;;
69569;SDS011;56781;42.292;23.146;2022-08-19T02:14:01;11.05;;;6.55;;
69569;SDS011;56781;42.292;23.146;2022-08-19T02:16:30;19.55;;;7.70;;
69569;SDS011;56781;42.292;23.146;2022-08-19T02:18:57;12.70;;;7.03;;
69569;SDS011;56781;42.292;23.146;2022-08-19T02:21:27;9.18;;;6.13;;
69569;SDS011;56781;42.292;23.146;2022-08-19T02:23:55;9.73;;;6.07;;
69569;SDS011;56781;42.292;23.146;2022-08-19T02:26:23;10.23;;;5.65;;
69569;SDS011;56781;42.292;23.146;2022-08-19T02:28:52;7.70;;;4.90;;
69569;SDS011;56781;42.292;23.146;2022-08-19T02:31:21;7.88;;;5.47;;
69569;SDS011;56781;42.292;23.146;2022-08-19T02:33:51;9.63;;;5.88;;
69569;SDS011;56781;42.292;23.146;2022-08-19T02:36:22;8.80;;;5.55;;
69569;SDS011;56781;42.292;23.146;2022-08-19T02:38:50;8.40;;;5.57;;
69569;SDS011;56781;42.292;23.146;2022-08-19T02:41:30;11.00;;;6.18;;
69569;SDS011;56781;42.292;23.146;2022-08-19T02:43:59;9.18;;;6.53;;
69569;SDS011;56781;42.292;23.146;2022-08-19T02:46:50;12.95;;;6.72;;
69569;SDS011;56781;42.292;23.146;2022-08-19T02:49:18;10.30;;;6.38;;
69569;SDS011;56781;42.292;23.146;2022-08-19T02:51:46;12.07;;;6.93;;
69569;SDS011;56781;42.292;23.146;2022-08-19T02:54:14;11.65;;;6.80;;
69569;SDS011;56781;42.292;23.146;2022-08-19T02:56:42;11.52;;;6.45;;
69569;SDS011;56781;42.292;23.146;2022-08-19T02:59:10;10.55;;;6.90;;
69569;SDS011;56781;42.292;23.146;2022-08-19T03:01:39;11.10;;;6.50;;
69569;SDS011;56781;42.292;23.146;2022-08-19T03:04:09;11.70;;;6.70;;
69569;SDS011;56781;42.292;23.146;2022-08-19T03:06:39;10.50;;;6.53;;
69569;SDS011;56781;42.292;23.146;2022-08-19T03:09:08;10.90;;;6.80;;
69569;SDS011;56781;42.292;23.146;2022-08-19T03:11:35;10.10;;;6.35;;
69569;SDS011;56781;42.292;23.146;2022-08-19T03:14:03;11.20;;;6.68;;
69569;SDS011;56781;42.292;23.146;2022-08-19T03:16:33;11.60;;;6.30;;
69569;SDS011;56781;42.292;23.146;2022-08-19T03:19:06;9.55;;;6.28;;
69569;SDS011;56781;42.292;23.146;2022-08-19T03:21:33;9.15;;;6.15;;
69569;SDS011;56781;42.292;23.146;2022-08-19T03:24:02;11.02;;;6.47;;
69569;SDS011;56781;42.292;23.146;2022-08-19T03:26:32;10.65;;;6.63;;
69569;SDS011;56781;42.292;23.146;2022-08-19T03:29:03;11.13;;;6.57;;
69569;SDS011;56781;42.292;23.146;2022-08-19T03:31:33;11.13;;;6.35;;
69569;SDS011;56781;42.292;23.146;2022-08-19T03:34:13;9.65;;;6.40;;
69569;SDS011;56781;42.292;23.146;2022-08-19T03:36:44;9.50;;;6.20;;
69569;SDS011;56781;42.292;23.146;2022-08-19T03:39:12;10.82;;;5.80;;
69569;SDS011;56781;42.292;23.146;2022-08-19T03:41:40;10.05;;;5.72;;
69569;SDS011;56781;42.292;23.146;2022-08-19T03:44:11;10.60;;;6.43;;
69569;SDS011;56781;42.292;23.146;2022-08-19T03:46:44;15.00;;;6.72;;
69569;SDS011;56781;42.292;23.146;2022-08-19T03:49:12;10.18;;;6.35;;
69569;SDS011;56781;42.292;23.146;2022-08-19T03:51:40;10.60;;;6.53;;
69569;SDS011;56781;42.292;23.146;2022-08-19T03:54:11;10.55;;;6.40;;
69569;SDS011;56781;42.292;23.146;2022-08-19T03:56:40;10.25;;;6.68;;
69569;SDS011;56781;42.292;23.146;2022-08-19T03:59:09;10.48;;;6.32;;
69569;SDS011;56781;42.292;23.146;2022-08-19T04:01:39;10.60;;;6.25;;
69569;SDS011;56781;42.292;23.146;2022-08-19T04:04:07;12.50;;;6.80;;
69569;SDS011;56781;42.292;23.146;2022-08-19T04:06:36;11.07;;;6.50;;
69569;SDS011;56781;42.292;23.146;2022-08-19T04:09:09;13.43;;;6.65;;
69569;SDS011;56781;42.292;23.146;2022-08-19T04:11:39;11.18;;;6.70;;
69569;SDS011;56781;42.292;23.146;2022-08-19T04:14:20;11.00;;;6.30;;
69569;SDS011;56781;42.292;23.146;2022-08-19T04:16:50;10.55;;;6.47;;
69569;SDS011;56781;42.292;23.146;2022-08-19T04:19:18;13.10;;;6.53;;
69569;SDS011;56781;42.292;23.146;2022-08-19T04:21:47;11.68;;;7.00;;
69569;SDS011;56781;42.292;23.146;2022-08-19T04:24:16;11.77;;;6.72;;
69569;SDS011;56781;42.292;23.146;2022-08-19T04:26:44;10.00;;;5.90;;
69569;SDS011;56781;42.292;23.146;2022-08-19T04:29:13;14.10;;;7.22;;
69569;SDS011;56781;42.292;23.146;2022-08-19T04:31:43;12.38;;;7.03;;
69569;SDS011;56781;42.292;23.146;2022-08-19T04:34:12;10.50;;;7.03;;
69569;SDS011;56781;42.292;23.146;2022-08-19T04:36:42;11.88;;;7.03;;
69569;SDS011;56781;42.292;23.146;2022-08-19T04:39:12;15.10;;;7.47;;
69569;SDS011;56781;42.292;23.146;2022-08-19T04:41:41;13.07;;;7.35;;
69569;SDS011;56781;42.292;23.146;2022-08-19T04:44:26;12.02;;;7.47;;
69569;SDS011;56781;42.292;23.146;2022-08-19T04:46:58;14.13;;;7.32;;
69569;SDS011;56781;42.292;23.146;2022-08-19T04:49:26;11.55;;;7.63;;
69569;SDS011;56781;42.292;23.146;2022-08-19T04:51:53;11.70;;;7.55;;
69569;SDS011;56781;42.292;23.146;2022-08-19T04:54:22;13.15;;;7.88;;
69569;SDS011;56781;42.292;23.146;2022-08-19T04:57:06;11.93;;;7.20;;
69569;SDS011;56781;42.292;23.146;2022-08-19T04:59:37;12.35;;;7.72;;
69569;SDS011;56781;42.292;23.146;2022-08-19T05:02:06;12.63;;;7.28;;
69569;SDS011;56781;42.292;23.146;2022-08-19T05:04:34;12.88;;;7.72;;
69569;SDS011;56781;42.292;23.146;2022-08-19T05:07:01;15.15;;;8.10;;
69569;SDS011;56781;42.292;23.146;2022-08-19T05:09:29;49.95;;;10.13;;
69569;SDS011;56781;42.292;23.146;2022-08-19T05:12:16;65.82;;;12.60;;
69569;SDS011;56781;42.292;23.146;2022-08-19T05:14:45;21.80;;;8.30;;
69569;SDS011;56781;42.292;23.146;2022-08-19T05:17:14;13.93;;;7.15;;
69569;SDS011;56781;42.292;23.146;2022-08-19T05:20:01;11.80;;;6.97;;
69569;SDS011;56781;42.292;23.146;2022-08-19T05:22:48;10.18;;;7.13;;
69569;SDS011;56781;42.292;23.146;2022-08-19T05:25:16;12.52;;;7.35;;
69569;SDS011;56781;42.292;23.146;2022-08-19T05:27:46;10.27;;;6.78;;
69569;SDS011;56781;42.292;23.146;2022-08-19T05:30:14;9.63;;;6.72;;
69569;SDS011;56781;42.292;23.146;2022-08-19T05:32:42;11.50;;;7.10;;
69569;SDS011;56781;42.292;23.146;2022-08-19T05:35:09;10.15;;;6.85;;
69569;SDS011;56781;42.292;23.146;2022-08-19T05:37:38;9.93;;;6.45;;
69569;SDS011;56781;42.292;23.146;2022-08-19T05:40:07;9.52;;;6.38;;
69569;SDS011;56781;42.292;23.146;2022-08-19T05:42:37;10.35;;;6.35;;
69569;SDS011;56781;42.292;23.146;2022-08-19T05:45:04;10.05;;;6.57;;
69569;SDS011;56781;42.292;23.146;2022-08-19T05:47:33;10.88;;;7.10;;
69569;SDS011;56781;42.292;23.146;2022-08-19T05:50:07;11.52;;;6.38;;
69569;SDS011;56781;42.292;23.146;2022-08-19T05:52:36;9.50;;;6.00;;
69569;SDS011;56781;42.292;23.146;2022-08-19T05:55:11;9.85;;;6.63;;
69569;SDS011;56781;42.292;23.146;2022-08-19T05:57:38;10.45;;;5.90;;
69569;SDS011;56781;42.292;23.146;2022-08-19T06:00:06;9.10;;;6.00;;
69569;SDS011;56781;42.292;23.146;2022-08-19T06:02:37;9.10;;;6.18;;
69569;SDS011;56781;42.292;23.146;2022-08-19T06:05:05;9.98;;;6.43;;
69569;SDS011;56781;42.292;23.146;2022-08-19T06:07:35;8.55;;;5.95;;
69569;SDS011;56781;42.292;23.146;2022-08-19T06:10:07;10.60;;;6.18;;
69569;SDS011;56781;42.292;23.146;2022-08-19T06:12:38;9.20;;;6.10;;
69569;SDS011;56781;42.292;23.146;2022-08-19T06:15:10;10.80;;;6.10;;
69569;SDS011;56781;42.292;23.146;2022-08-19T06:17:39;9.57;;;5.95;;
69569;SDS011;56781;42.292;23.146;2022-08-19T06:20:09;9.07;;;5.78;;
69569;SDS011;56781;42.292;23.146;2022-08-19T06:22:42;9.73;;;6.00;;
69569;SDS011;56781;42.292;23.146;2022-08-19T06:25:11;8.48;;;5.95;;
69569;SDS011;56781;42.292;23.146;2022-08-19T06:27:40;8.40;;;6.00;;
69569;SDS011;56781;42.292;23.146;2022-08-19T06:30:27;9.32;;;5.40;;
69569;SDS011;56781;42.292;23.146;2022-08-19T06:32:55;10.18;;;6.65;;
69569;SDS011;56781;42.292;23.146;2022-08-19T06:35:22;10.80;;;6.78;;
69569;SDS011;56781;42.292;23.146;2022-08-19T06:37:48;11.80;;;6.78;;
69569;SDS011;56781;42.292;23.146;2022-08-19T06:40:15;11.45;;;7.10;;
69569;SDS011;56781;42.292;23.146;2022-08-19T06:42:42;9.18;;;6.80;;
69569;SDS011;56781;42.292;23.146;2022-08-19T06:45:19;9.07;;;6.45;;
69569;SDS011;56781;42.292;23.146;2022-08-19T06:47:59;10.13;;;6.88;;
69569;SDS011;56781;42.292;23.146;2022-08-19T06:50:26;9.57;;;6.28;;
69569;SDS011;56781;42.292;23.146;2022-08-19T06:52:53;8.98;;;6.25;;
69569;SDS011;56781;42.292;23.146;2022-08-19T06:55:20;9.85;;;6.65;;
69569;SDS011;56781;42.292;23.146;2022-08-19T06:57:47;9.10;;;6.30;;
69569;SDS011;56781;42.292;23.146;2022-08-19T07:00:16;8.57;;;6.57;;
69569;SDS011;56781;42.292;23.146;2022-08-19T07:02:43;10.98;;;6.50;;
69569;SDS011;56781;42.292;23.146;2022-08-19T07:05:20;9.38;;;6.22;;
69569;SDS011;56781;42.292;23.146;2022-08-19T07:07:48;10.25;;;6.50;;
69569;SDS011;56781;42.292;23.146;2022-08-19T07:10:16;11.07;;;6.55;;
69569;SDS011;56781;42.292;23.146;2022-08-19T07:12:43;8.68;;;6.13;;
69569;SDS011;56781;42.292;23.146;2022-08-19T07:15:12;8.65;;;6.03;;
69569;SDS011;56781;42.292;23.146;2022-08-19T07:17:39;11.27;;;6.50;;
69569;SDS011;56781;42.292;23.146;2022-08-19T07:20:09;10.50;;;6.20;;
69569;SDS011;56781;42.292;23.146;2022-08-19T07:22:37;13.35;;;6.60;;
69569;SDS011;56781;42.292;23.146;2022-08-19T07:25:06;8.68;;;5.55;;
69569;SDS011;56781;42.292;23.146;2022-08-19T07:27:34;9.82;;;6.15;;
69569;SDS011;56781;42.292;23.146;2022-08-19T07:30:01;8.60;;;5.95;;
69569;SDS011;56781;42.292;23.146;2022-08-19T07:32:29;8.57;;;5.97;;
69569;SDS011;56781;42.292;23.146;2022-08-19T07:34:57;7.40;;;5.65;;
69569;SDS011;56781;42.292;23.146;2022-08-19T07:37:27;8.05;;;5.63;;
69569;SDS011;56781;42.292;23.146;2022-08-19T07:39:59;6.97;;;5.63;;
69569;SDS011;56781;42.292;23.146;2022-08-19T07:42:27;7.90;;;5.70;;
69569;SDS011;56781;42.292;23.146;2022-08-19T07:44:56;9.10;;;5.40;;
69569;SDS011;56781;42.292;23.146;2022-08-19T07:47:24;10.75;;;5.80;;
69569;SDS011;56781;42.292;23.146;2022-08-19T07:50:11;15.13;;;6.30;;
69569;SDS011;56781;42.292;23.146;2022-08-19T07:52:39;14.52;;;6.82;;
69569;SDS011;56781;42.292;23.146;2022-08-19T07:55:07;17.80;;;6.47;;
69569;SDS011;56781;42.292;23.146;2022-08-19T07:57:56;9.93;;;6.07;;
69569;SDS011;56781;42.292;23.146;2022-08-19T08:00:23;19.40;;;6.63;;
69569;SDS011;56781;42.292;23.146;2022-08-19T08:02:51;11.45;;;5.63;;
69569;SDS011;56781;42.292;23.146;2022-08-19T08:05:21;10.95;;;5.70;;
69569;SDS011;56781;42.292;23.146;2022-08-19T08:08:09;10.90;;;5.87;;
69569;SDS011;56781;42.292;23.146;2022-08-19T08:10:57;13.02;;;6.35;;
69569;SDS011;56781;42.292;23.146;2022-08-19T08:13:24;15.23;;;6.80;;
69569;SDS011;56781;42.292;23.146;2022-08-19T08:15:52;22.90;;;7.00;;
69569;SDS011;56781;42.292;23.146;2022-08-19T08:18:21;12.63;;;5.38;;
69569;SDS011;56781;42.292;23.146;2022-08-19T08:20:53;11.90;;;5.85;;
69569;SDS011;56781;42.292;23.146;2022-08-19T08:23:23;8.82;;;5.35;;
69569;SDS011;56781;42.292;23.146;2022-08-19T08:25:56;10.18;;;5.65;;
69569;SDS011;56781;42.292;23.146;2022-08-19T08:28:24;9.90;;;5.50;;
69569;SDS011;56781;42.292;23.146;2022-08-19T08:30:55;10.30;;;5.60;;
69569;SDS011;56781;42.292;23.146;2022-08-19T08:33:24;13.50;;;6.30;;
69569;SDS011;56781;42.292;23.146;2022-08-19T08:36:06;10.80;;;6.10;;
69569;SDS011;56781;42.292;23.146;2022-08-19T08:38:34;14.05;;;6.95;;
69569;SDS011;56781;42.292;23.146;2022-08-19T08:43:46;10.57;;;5.82;;
69569;SDS011;56781;42.292;23.146;2022-08-19T08:49:15;10.63;;;6.03;;
69569;SDS011;56781;42.292;23.146;2022-08-19T08:52:41;11.18;;;5.53;;
69569;SDS011;56781;42.292;23.146;2022-08-19T08:54:50;12.20;;;6.10;;
69569;SDS011;56781;42.292;23.146;2022-08-19T08:57:27;10.23;;;6.30;;
69569;SDS011;56781;42.292;23.146;2022-08-19T09:00:10;9.15;;;5.88;;
69569;SDS011;56781;42.292;23.146;2022-08-19T09:02:43;11.95;;;6.45;;
69569;SDS011;56781;42.292;23.146;2022-08-19T09:05:16;10.60;;;5.85;;
69569;SDS011;56781;42.292;23.146;2022-08-19T09:10:34;12.38;;;5.78;;
69569;SDS011;56781;42.292;23.146;2022-08-19T09:15:44;13.43;;;6.63;;
69569;SDS011;56781;42.292;23.146;2022-08-19T09:18:14;11.75;;;6.53;;
69569;SDS011;56781;42.292;23.146;2022-08-19T09:20:45;12.43;;;6.15;;
69569;SDS011;56781;42.292;23.146;2022-08-19T09:23:13;15.35;;;6.80;;
69569;SDS011;56781;42.292;23.146;2022-08-19T09:25:41;14.73;;;7.37;;
69569;SDS011;56781;42.292;23.146;2022-08-19T09:28:08;15.07;;;7.05;;
69569;SDS011;56781;42.292;23.146;2022-08-19T09:30:52;11.13;;;6.40;;
69569;SDS011;56781;42.292;23.146;2022-08-19T09:33:19;12.65;;;6.80;;
69569;SDS011;56781;42.292;23.146;2022-08-19T09:35:46;9.40;;;6.10;;
69569;SDS011;56781;42.292;23.146;2022-08-19T09:38:19;12.47;;;6.50;;
69569;SDS011;56781;42.292;23.146;2022-08-19T09:40:47;11.10;;;5.97;;
69569;SDS011;56781;42.292;23.146;2022-08-19T09:43:14;14.65;;;6.53;;
69569;SDS011;56781;42.292;23.146;2022-08-19T09:45:58;10.25;;;6.40;;
69569;SDS011;56781;42.292;23.146;2022-08-19T09:48:26;11.73;;;6.63;;
69569;SDS011;56781;42.292;23.146;2022-08-19T09:50:53;10.03;;;5.90;;
69569;SDS011;56781;42.292;23.146;2022-08-19T09:53:20;15.30;;;7.18;;
69569;SDS011;56781;42.292;23.146;2022-08-19T09:55:51;17.02;;;7.78;;
69569;SDS011;56781;42.292;23.146;2022-08-19T09:58:18;14.20;;;6.82;;
69569;SDS011;56781;42.292;23.146;2022-08-19T10:00:51;21.70;;;7.53;;
69569;SDS011;56781;42.292;23.146;2022-08-19T10:03:18;14.50;;;6.93;;
69569;SDS011;56781;42.292;23.146;2022-08-19T10:05:50;13.13;;;6.68;;
69569;SDS011;56781;42.292;23.146;2022-08-19T10:08:24;13.18;;;6.53;;
69569;SDS011;56781;42.292;23.146;2022-08-19T10:10:56;12.98;;;6.75;;
69569;SDS011;56781;42.292;23.146;2022-08-19T10:13:25;17.45;;;7.85;;
69569;SDS011;56781;42.292;23.146;2022-08-19T10:15:54;14.73;;;7.10;;
69569;SDS011;56781;42.292;23.146;2022-08-19T10:18:23;14.20;;;7.43;;
69569;SDS011;56781;42.292;23.146;2022-08-19T10:20:51;13.70;;;6.57;;
69569;SDS011;56781;42.292;23.146;2022-08-19T10:23:20;9.93;;;5.97;;
69569;SDS011;56781;42.292;23.146;2022-08-19T10:25:47;12.63;;;6.90;;
69569;SDS011;56781;42.292;23.146;2022-08-19T10:28:16;11.20;;;6.30;;
69569;SDS011;56781;42.292;23.146;2022-08-19T10:30:44;13.30;;;6.47;;
69569;SDS011;56781;42.292;23.146;2022-08-19T10:33:12;9.38;;;6.28;;
69569;SDS011;56781;42.292;23.146;2022-08-19T10:36:06;10.73;;;6.60;;
69569;SDS011;56781;42.292;23.146;2022-08-19T10:38:38;9.95;;;5.80;;
69569;SDS011;56781;42.292;23.146;2022-08-19T10:41:18;12.63;;;6.50;;
69569;SDS011;56781;42.292;23.146;2022-08-19T10:43:52;12.40;;;6.47;;
69569;SDS011;56781;42.292;23.146;2022-08-19T10:46:21;13.02;;;6.80;;
69569;SDS011;56781;42.292;23.146;2022-08-19T10:48:50;14.30;;;7.00;;
69569;SDS011;56781;42.292;23.146;2022-08-19T10:51:18;14.75;;;9.20;;
69569;SDS011;56781;42.292;23.146;2022-08-19T10:54:13;11.07;;;6.50;;
69569;SDS011;56781;42.292;23.146;2022-08-19T10:56:40;12.70;;;6.32;;
69569;SDS011;56781;42.292;23.146;2022-08-19T10:59:20;10.57;;;5.95;;
69569;SDS011;56781;42.292;23.146;2022-08-19T11:01:52;12.15;;;6.72;;
69569;SDS011;56781;42.292;23.146;2022-08-19T11:04:21;10.00;;;6.30;;
69569;SDS011;56781;42.292;23.146;2022-08-19T11:06:55;10.70;;;5.60;;
69569;SDS011;56781;42.292;23.146;2022-08-19T11:09:24;11.50;;;6.05;;
69569;SDS011;56781;42.292;23.146;2022-08-19T11:11:59;10.00;;;5.60;;
69569;SDS011;56781;42.292;23.146;2022-08-19T11:14:30;7.28;;;4.90;;
69569;SDS011;56781;42.292;23.146;2022-08-19T11:16:59;7.28;;;5.03;;
69569;SDS011;56781;42.292;23.146;2022-08-19T11:19:27;8.87;;;4.50;;
69569;SDS011;56781;42.292;23.146;2022-08-19T11:21:54;8.40;;;4.70;;
69569;SDS011;56781;42.292;23.146;2022-08-19T11:24:25;8.27;;;4.78;;
69569;SDS011;56781;42.292;23.146;2022-08-19T11:26:54;8.15;;;5.00;;
69569;SDS011;56781;42.292;23.146;2022-08-19T11:29:27;6.32;;;4.30;;
69569;SDS011;56781;42.292;23.146;2022-08-19T11:31:55;6.43;;;4.20;;
69569;SDS011;56781;42.292;23.146;2022-08-19T11:34:23;7.45;;;4.60;;
69569;SDS011;56781;42.292;23.146;2022-08-19T11:36:53;7.10;;;4.15;;
69569;SDS011;56781;42.292;23.146;2022-08-19T11:39:25;6.13;;;4.32;;
69569;SDS011;56781;42.292;23.146;2022-08-19T11:41:54;8.10;;;4.40;;
69569;SDS011;56781;42.292;23.146;2022-08-19T11:44:21;6.67;;;4.33;;
69569;SDS011;56781;42.292;23.146;2022-08-19T11:46:48;8.07;;;5.07;;
69569;SDS011;56781;42.292;23.146;2022-08-19T11:49:16;8.27;;;5.00;;
69569;SDS011;56781;42.292;23.146;2022-08-19T11:51:45;5.93;;;4.68;;
69569;SDS011;56781;42.292;23.146;2022-08-19T11:54:13;8.75;;;4.63;;
69569;SDS011;56781;42.292;23.146;2022-08-19T11:56:42;7.27;;;4.33;;
69569;SDS011;56781;42.292;23.146;2022-08-19T11:59:10;7.90;;;4.30;;
69569;SDS011;56781;42.292;23.146;2022-08-19T12:01:40;6.30;;;4.30;;
69569;SDS011;56781;42.292;23.146;2022-08-19T12:04:09;6.30;;;4.20;;
69569;SDS011;56781;42.292;23.146;2022-08-19T12:06:37;6.38;;;4.38;;
69569;SDS011;56781;42.292;23.146;2022-08-19T12:09:06;5.67;;;4.00;;
69569;SDS011;56781;42.292;23.146;2022-08-19T12:11:35;7.32;;;4.10;;
69569;SDS011;56781;42.292;23.146;2022-08-19T12:14:04;6.38;;;4.20;;
69569;SDS011;56781;42.292;23.146;2022-08-19T12:16:32;7.35;;;4.30;;
69569;SDS011;56781;42.292;23.146;2022-08-19T12:19:03;6.25;;;4.35;;
69569;SDS011;56781;42.292;23.146;2022-08-19T12:21:32;6.13;;;4.17;;
69569;SDS011;56781;42.292;23.146;2022-08-19T12:24:01;7.30;;;4.43;;
69569;SDS011;56781;42.292;23.146;2022-08-19T12:26:29;5.70;;;4.45;;
69569;SDS011;56781;42.292;23.146;2022-08-19T12:28:58;6.53;;;3.88;;
69569;SDS011;56781;42.292;23.146;2022-08-19T12:31:29;5.10;;;3.88;;
69569;SDS011;56781;42.292;23.146;2022-08-19T12:33:56;5.93;;;4.10;;
69569;SDS011;56781;42.292;23.146;2022-08-19T12:36:24;6.00;;;4.10;;
69569;SDS011;56781;42.292;23.146;2022-08-19T12:38:51;7.40;;;4.35;;
69569;SDS011;56781;42.292;23.146;2022-08-19T12:41:19;7.50;;;4.43;;
69569;SDS011;56781;42.292;23.146;2022-08-19T12:43:48;5.70;;;4.47;;
69569;SDS011;56781;42.292;23.146;2022-08-19T12:46:17;5.53;;;4.27;;
69569;SDS011;56781;42.292;23.146;2022-08-19T12:48:47;6.30;;;4.40;;
69569;SDS011;56781;42.292;23.146;2022-08-19T12:51:20;6.35;;;4.57;;
69569;SDS011;56781;42.292;23.146;2022-08-19T12:53:47;7.00;;;4.60;;
69569;SDS011;56781;42.292;23.146;2022-08-19T12:56:16;7.45;;;4.70;;
69569;SDS011;56781;42.292;23.146;2022-08-19T12:58:48;6.43;;;4.00;;
69569;SDS011;56781;42.292;23.146;2022-08-19T13:01:18;8.40;;;5.35;;
69569;SDS011;56781;42.292;23.146;2022-08-19T13:03:48;41.10;;;18.90;;
69569;SDS011;56781;42.292;23.146;2022-08-19T13:06:16;10.18;;;5.70;;
69569;SDS011;56781;42.292;23.146;2022-08-19T13:08:45;10.43;;;6.30;;
69569;SDS011;56781;42.292;23.146;2022-08-19T13:11:14;7.63;;;4.40;;
69569;SDS011;56781;42.292;23.146;2022-08-19T13:13:44;7.93;;;4.88;;
69569;SDS011;56781;42.292;23.146;2022-08-19T13:16:13;7.85;;;4.65;;
69569;SDS011;56781;42.292;23.146;2022-08-19T13:18:41;6.25;;;4.30;;
69569;SDS011;56781;42.292;23.146;2022-08-19T13:21:13;9.77;;;5.55;;
69569;SDS011;56781;42.292;23.146;2022-08-19T13:23:41;6.60;;;4.60;;
69569;SDS011;56781;42.292;23.146;2022-08-19T13:26:09;7.80;;;4.38;;
69569;SDS011;56781;42.292;23.146;2022-08-19T13:28:38;8.65;;;4.50;;
69569;SDS011;56781;42.292;23.146;2022-08-19T13:31:25;5.78;;;4.38;;
69569;SDS011;56781;42.292;23.146;2022-08-19T13:34:13;8.00;;;4.57;;
69569;SDS011;56781;42.292;23.146;2022-08-19T13:36:43;5.90;;;4.30;;
69569;SDS011;56781;42.292;23.146;2022-08-19T13:39:22;6.72;;;4.65;;
69569;SDS011;56781;42.292;23.146;2022-08-19T13:41:50;5.90;;;4.43;;
69569;SDS011;56781;42.292;23.146;2022-08-19T13:44:18;6.55;;;4.75;;
69569;SDS011;56781;42.292;23.146;2022-08-19T13:46:46;7.88;;;4.80;;
69569;SDS011;56781;42.292;23.146;2022-08-19T13:49:19;7.67;;;4.77;;
69569;SDS011;56781;42.292;23.146;2022-08-19T13:51:46;7.53;;;4.82;;
69569;SDS011;56781;42.292;23.146;2022-08-19T13:54:13;6.15;;;4.50;;
69569;SDS011;56781;42.292;23.146;2022-08-19T13:56:41;8.02;;;4.78;;
69569;SDS011;56781;42.292;23.146;2022-08-19T13:59:10;6.60;;;4.50;;
69569;SDS011;56781;42.292;23.146;2022-08-19T14:01:38;7.40;;;4.73;;
69569;SDS011;56781;42.292;23.146;2022-08-19T14:04:06;6.50;;;4.60;;
69569;SDS011;56781;42.292;23.146;2022-08-19T14:06:33;6.85;;;4.40;;
69569;SDS011;56781;42.292;23.146;2022-08-19T14:09:01;7.40;;;4.15;;
69569;SDS011;56781;42.292;23.146;2022-08-19T14:11:29;7.40;;;4.60;;
69569;SDS011;56781;42.292;23.146;2022-08-19T14:13:56;6.13;;;4.40;;
69569;SDS011;56781;42.292;23.146;2022-08-19T14:16:23;5.68;;;4.00;;
69569;SDS011;56781;42.292;23.146;2022-08-19T14:18:51;7.13;;;4.47;;
69569;SDS011;56781;42.292;23.146;2022-08-19T14:21:20;7.90;;;4.50;;
69569;SDS011;56781;42.292;23.146;2022-08-19T14:23:50;6.35;;;4.65;;
69569;SDS011;56781;42.292;23.146;2022-08-19T14:26:17;8.53;;;4.50;;
69569;SDS011;56781;42.292;23.146;2022-08-19T14:28:47;6.63;;;4.45;;
69569;SDS011;56781;42.292;23.146;2022-08-19T14:31:16;7.72;;;4.20;;
69569;SDS011;56781;42.292;23.146;2022-08-19T14:33:48;5.43;;;4.25;;
69569;SDS011;56781;42.292;23.146;2022-08-19T14:36:17;7.05;;;4.15;;
69569;SDS011;56781;42.292;23.146;2022-08-19T14:38:47;6.53;;;4.20;;
69569;SDS011;56781;42.292;23.146;2022-08-19T14:41:16;6.97;;;4.50;;
69569;SDS011;56781;42.292;23.146;2022-08-19T14:43:46;7.78;;;4.65;;
69569;SDS011;56781;42.292;23.146;2022-08-19T14:46:16;7.15;;;3.95;;
69569;SDS011;56781;42.292;23.146;2022-08-19T14:48:47;7.43;;;4.32;;
69569;SDS011;56781;42.292;23.146;2022-08-19T14:51:18;8.13;;;4.43;;
69569;SDS011;56781;42.292;23.146;2022-08-19T14:53:47;9.95;;;4.60;;
69569;SDS011;56781;42.292;23.146;2022-08-19T14:56:18;7.05;;;4.50;;